Time;durP1;ratioP1;P1;durP2;ratioP2;P2;SDS_P1;SDS_P2;PMS_P1;PMS_P2;Temp;Humidity;BMP_temperature;BMP_pressure;BME280_temperature;BME280_humidity;BME280_pressure;Samples;Min_cycle;Max_cycle;Signal;HPM_P1;HPM_P2
2022/02/12 00:00:20;;;;;;;21.40;19.20;;;3.80;62.00;;;;;;5097992;27;20490;-83
2022/02/12 00:02:46;;;;;;;21.63;19.80;;;3.70;62.00;;;;;;5102545;28;20419;-83
2022/02/12 00:05:14;;;;;;;21.10;19.20;;;3.80;62.30;;;;;;5113856;27;20407;-86
2022/02/12 00:07:40;;;;;;;20.43;18.73;;;3.70;61.30;;;;;;5110689;28;20422;-84
2022/02/12 00:10:06;;;;;;;19.97;17.80;;;3.70;62.60;;;;;;5093365;28;20765;-84
2022/02/12 00:12:32;;;;;;;21.13;19.40;;;3.60;62.50;;;;;;5092894;28;20203;-82
2022/02/12 00:14:57;;;;;;;20.23;18.23;;;3.70;63.00;;;;;;5091623;28;20423;-83
2022/02/12 00:17:24;;;;;;;20.10;18.03;;;3.70;62.40;;;;;;5091551;28;20451;-82
2022/02/12 00:19:51;;;;;;;22.40;20.50;;;3.70;62.80;;;;;;5109879;28;20580;-82
2022/02/12 00:22:17;;;;;;;20.33;18.77;;;3.70;62.40;;;;;;5091779;28;20420;-82
2022/02/12 00:24:43;;;;;;;21.50;18.70;;;3.60;62.30;;;;;;5091697;28;20499;-82
2022/02/12 00:27:09;;;;;;;19.87;18.37;;;3.60;63.10;;;;;;5091369;28;20219;-82
2022/02/12 00:29:35;;;;;;;20.05;18.45;;;3.60;63.20;;;;;;5082308;28;20925;-82
2022/02/12 00:32:01;;;;;;;20.40;18.60;;;3.60;63.10;;;;;;5098878;28;20182;-82
2022/02/12 00:34:27;;;;;;;15.33;14.13;;;3.50;61.90;;;;;;5104443;28;20423;-82
2022/02/12 00:36:53;;;;;;;16.13;14.70;;;3.40;61.60;;;;;;5098945;28;20488;-82
2022/02/12 00:39:18;;;;;;;15.50;14.40;;;3.40;61.80;;;;;;5096504;28;20178;-82
2022/02/12 00:41:44;;;;;;;14.70;13.60;;;3.30;62.00;;;;;;5094593;28;20636;-82
2022/02/12 00:44:10;;;;;;;15.80;14.30;;;3.40;62.70;;;;;;5103894;28;20271;-82
2022/02/12 00:46:35;;;;;;;16.20;14.80;;;3.30;60.50;;;;;;5101502;28;20258;-81
2022/02/12 00:49:03;;;;;;;15.77;14.30;;;3.20;61.30;;;;;;5096903;28;20173;-82
2022/02/12 00:51:33;;;;;;;15.10;13.77;;;3.30;62.40;;;;;;5103521;28;20174;-83
2022/02/12 00:53:59;;;;;;;15.50;14.30;;;3.40;60.10;;;;;;5112983;28;20444;-82
2022/02/12 00:56:25;;;;;;;14.53;13.33;;;3.40;61.80;;;;;;5113149;27;20454;-83
2022/02/12 00:58:52;;;;;;;14.67;13.17;;;3.40;61.10;;;;;;5087055;28;20970;-83
2022/02/12 01:01:18;;;;;;;15.53;14.33;;;3.50;60.60;;;;;;5092563;28;20908;-83
2022/02/12 01:03:43;;;;;;;16.13;14.87;;;3.40;59.20;;;;;;5091523;28;20807;-83
2022/02/12 01:06:09;;;;;;;18.40;15.20;;;3.30;60.20;;;;;;5073856;28;20454;-86
2022/02/12 01:08:35;;;;;;;18.63;17.03;;;3.30;60.40;;;;;;5080744;28;20644;-84
2022/02/12 01:11:02;;;;;;;18.17;16.52;;;3.20;59.60;;;;;;5098321;28;21134;-84
2022/02/12 01:13:27;;;;;;;18.37;16.77;;;3.10;60.10;;;;;;5094107;28;20212;-84
2022/02/12 01:15:53;;;;;;;18.70;17.40;;;3.10;60.00;;;;;;5110277;28;20482;-87
2022/02/12 01:18:19;;;;;;;18.27;16.83;;;3.10;60.90;;;;;;5086478;28;20817;-87
2022/02/12 01:20:44;;;;;;;19.97;18.27;;;3.10;60.90;;;;;;5100578;28;20646;-87
2022/02/12 01:23:10;;;;;;;20.20;18.73;;;3.20;60.90;;;;;;5092671;28;20208;-87
2022/02/12 01:25:36;;;;;;;18.07;16.73;;;3.10;59.80;;;;;;5092082;28;20174;-87
2022/02/12 01:28:02;;;;;;;20.13;18.33;;;3.10;60.30;;;;;;5091168;28;20197;-86
2022/02/12 01:30:28;;;;;;;19.63;18.13;;;3.00;60.00;;;;;;5091047;28;20412;-86
2022/02/12 01:32:53;;;;;;;20.90;18.80;;;2.90;60.20;;;;;;5091770;28;20217;-87
2022/02/12 01:35:23;;;;;;;20.40;18.70;;;2.90;62.20;;;;;;5092075;28;20454;-86
2022/02/12 01:37:49;;;;;;;20.40;18.80;;;2.90;61.50;;;;;;5091734;28;20467;-86
2022/02/12 01:40:14;;;;;;;20.37;18.80;;;3.00;62.70;;;;;;5093335;28;20407;-86
2022/02/12 01:42:40;;;;;;;18.83;17.33;;;3.00;62.40;;;;;;5095021;28;20440;-86
2022/02/12 01:45:06;;;;;;;19.90;18.30;;;3.10;60.90;;;;;;5094782;28;20196;-86
2022/02/12 01:47:32;;;;;;;19.70;17.90;;;3.10;59.80;;;;;;5094873;28;20661;-86
2022/02/12 01:49:58;;;;;;;19.50;17.90;;;3.00;60.50;;;;;;5094332;28;20407;-86
2022/02/12 01:52:28;;;;;;;18.77;17.40;;;3.10;60.90;;;;;;5095249;28;20174;-86
2022/02/12 01:54:54;;;;;;;18.50;17.10;;;3.10;61.20;;;;;;5095344;28;20173;-87
2022/02/12 01:57:20;;;;;;;18.67;17.07;;;3.10;60.90;;;;;;5094618;28;20482;-87
2022/02/12 01:59:49;;;;;;;19.60;17.83;;;3.20;61.10;;;;;;5096515;28;20585;-87
2022/02/12 02:02:14;;;;;;;19.67;17.93;;;3.20;60.80;;;;;;5096666;28;20174;-85
2022/02/12 02:04:41;;;;;;;19.83;18.03;;;3.10;60.50;;;;;;5095056;28;20414;-86
2022/02/12 02:07:07;;;;;;;19.63;18.07;;;3.20;61.00;;;;;;5095105;28;20653;-85
2022/02/12 02:09:32;;;;;;;20.70;18.70;;;3.10;60.70;;;;;;5094812;28;20415;-86
2022/02/12 02:11:58;;;;;;;22.53;20.70;;;3.10;59.90;;;;;;5096286;28;20430;-86
2022/02/12 02:14:38;;;;;;;20.50;18.90;;;3.10;60.80;;;;;;5096358;28;20539;-85
2022/02/12 02:17:04;;;;;;;20.33;18.77;;;3.10;60.40;;;;;;5095856;28;20459;-86
2022/02/12 02:19:30;;;;;;;20.63;18.90;;;3.10;60.90;;;;;;5095243;28;20412;-86
2022/02/12 02:21:58;;;;;;;21.00;19.43;;;3.00;60.80;;;;;;5094719;28;20419;-85
2022/02/12 02:24:24;;;;;;;19.50;18.00;;;3.00;60.80;;;;;;5095262;28;20490;-86
2022/02/12 02:26:50;;;;;;;19.80;18.20;;;3.00;60.30;;;;;;5094773;28;20507;-86
2022/02/12 02:29:16;;;;;;;20.50;18.80;;;3.00;61.10;;;;;;5094447;28;20412;-86
2022/02/12 02:31:42;;;;;;;20.48;18.73;;;3.00;61.00;;;;;;5094969;28;20465;-86
2022/02/12 02:34:12;;;;;;;20.23;18.43;;;3.00;61.20;;;;;;5095260;28;20633;-87
2022/02/12 02:36:38;;;;;;;22.53;20.70;;;3.00;61.70;;;;;;5094765;28;20736;-86
2022/02/12 02:39:05;;;;;;;19.53;17.93;;;3.00;61.70;;;;;;5095225;28;20415;-86
2022/02/12 02:41:32;;;;;;;20.20;18.57;;;3.00;62.00;;;;;;5094006;28;20425;-86
2022/02/12 02:43:58;;;;;;;21.63;19.73;;;3.00;61.30;;;;;;5093704;28;20439;-85
2022/02/12 02:46:24;;;;;;;19.83;18.20;;;3.00;61.20;;;;;;5094538;28;20419;-86
2022/02/12 02:48:49;;;;;;;21.33;19.63;;;3.00;60.80;;;;;;5094029;28;20419;-87
2022/02/12 02:56:43;;;;;;;20.90;19.30;;;3.00;61.50;;;;;;5111670;28;20458;-86
2022/02/12 02:59:09;;;;;;;22.23;19.90;;;2.90;60.80;;;;;;5093760;28;20412;-86
2022/02/12 03:01:35;;;;;;;21.30;19.70;;;2.90;61.30;;;;;;5093122;28;20183;-87
2022/02/12 03:04:02;;;;;;;20.23;18.73;;;3.00;61.60;;;;;;5094039;28;20309;-86
2022/02/12 03:06:29;;;;;;;22.60;20.70;;;2.90;60.70;;;;;;5093293;28;20453;-85
2022/02/12 03:08:56;;;;;;;20.75;18.95;;;2.90;61.00;;;;;;5092761;28;20808;-85
2022/02/12 03:11:22;;;;;;;22.37;20.60;;;2.80;59.70;;;;;;5093966;28;20268;-85
2022/02/12 03:13:50;;;;;;;20.73;18.90;;;2.70;61.20;;;;;;5093204;28;20813;-86
2022/02/12 03:16:16;;;;;;;21.58;19.63;;;2.70;60.60;;;;;;5093465;28;21136;-87
2022/02/12 03:18:44;;;;;;;21.43;19.70;;;2.70;60.60;;;;;;5095443;28;20177;-86
2022/02/12 03:21:11;;;;;;;20.40;18.80;;;2.70;61.70;;;;;;5095597;28;20693;-86
2022/02/12 03:23:37;;;;;;;21.53;20.03;;;2.70;60.60;;;;;;5094995;28;20499;-86
2022/02/12 03:26:04;;;;;;;20.45;18.92;;;2.70;60.60;;;;;;5095273;28;20431;-86
2022/02/12 03:28:29;;;;;;;20.90;19.30;;;2.70;61.00;;;;;;5094741;28;20181;-85
2022/02/12 03:30:55;;;;;;;20.43;18.83;;;2.70;61.40;;;;;;5094873;28;20430;-86
2022/02/12 03:33:21;;;;;;;20.53;18.93;;;2.70;61.70;;;;;;5095014;28;20265;-86
2022/02/12 03:35:49;;;;;;;23.73;22.00;;;2.70;61.60;;;;;;5095234;28;20173;-86
2022/02/12 03:38:29;;;;;;;21.13;19.53;;;2.70;60.90;;;;;;5095088;28;20166;-86
2022/02/12 03:40:58;;;;;;;23.60;21.37;;;2.60;61.80;;;;;;5094977;28;20422;-85
2022/02/12 03:43:24;;;;;;;23.77;21.90;;;2.50;61.50;;;;;;5092449;28;20415;-86
2022/02/12 03:45:51;;;;;;;24.63;22.50;;;2.60;62.00;;;;;;5093145;28;20546;-85
2022/02/12 03:48:17;;;;;;;24.13;22.27;;;2.60;62.00;;;;;;5092803;28;20827;-84
2022/02/12 03:50:43;;;;;;;27.37;24.77;;;2.60;62.20;;;;;;5093189;28;20419;-85
2022/02/12 03:53:09;;;;;;;26.02;23.60;;;2.60;62.00;;;;;;5092944;28;20426;-85
2022/02/12 03:55:42;;;;;;;26.43;24.23;;;2.50;61.30;;;;;;5092702;28;20256;-86
2022/02/12 03:58:16;;;;;;;25.80;23.60;;;2.40;62.50;;;;;;5092676;28;20414;-86
2022/02/12 04:00:43;;;;;;;24.97;22.67;;;2.30;62.30;;;;;;5092398;28;20408;-86
2022/02/12 04:03:09;;;;;;;24.95;23.05;;;2.20;63.30;;;;;;5087723;27;20414;-86
2022/02/12 04:05:36;;;;;;;26.47;24.20;;;2.20;63.90;;;;;;5099702;28;20625;-90
2022/02/12 04:08:02;;;;;;;27.38;24.88;;;2.30;63.20;;;;;;5101183;28;20634;-86
2022/02/12 04:10:28;;;;;;;24.17;22.17;;;2.00;62.30;;;;;;5107398;27;20176;-86
2022/02/12 04:12:54;;;;;;;27.97;25.50;;;2.00;64.10;;;;;;5111861;27;20815;-86
2022/02/12 04:15:22;;;;;;;26.67;24.33;;;1.90;62.90;;;;;;5111622;27;20812;-87
2022/02/12 04:17:48;;;;;;;28.00;25.65;;;1.80;65.40;;;;;;5112136;28;20899;-85
2022/02/12 04:20:16;;;;;;;27.98;25.58;;;1.70;64.70;;;;;;5112315;27;20524;-86
2022/02/12 04:22:43;;;;;;;27.17;24.65;;;1.70;64.70;;;;;;5112123;27;20207;-86
2022/02/12 04:25:13;;;;;;;26.33;24.08;;;1.80;65.50;;;;;;5132821;27;20181;-85
2022/02/12 04:27:38;;;;;;;27.45;25.15;;;1.80;64.80;;;;;;5114171;28;20614;-86
2022/02/12 04:30:06;;;;;;;27.17;24.47;;;1.70;65.50;;;;;;5102649;28;20206;-87
2022/02/12 04:32:32;;;;;;;27.10;24.90;;;1.80;66.00;;;;;;5094163;28;20178;-87
2022/02/12 04:34:59;;;;;;;26.83;24.57;;;1.80;65.60;;;;;;5102549;28;20430;-86
2022/02/12 04:37:26;;;;;;;27.55;25.15;;;1.60;65.80;;;;;;5109376;27;20450;-86
2022/02/12 04:39:51;;;;;;;26.70;24.60;;;1.60;67.30;;;;;;5115524;28;20169;-86
2022/02/12 04:42:17;;;;;;;25.17;22.97;;;1.70;67.40;;;;;;5114666;28;20413;-85
2022/02/12 04:44:51;;;;;;;25.30;23.13;;;1.70;66.60;;;;;;5113100;28;20760;-85
2022/02/12 04:47:18;;;;;;;27.30;24.80;;;1.70;67.60;;;;;;5113008;28;20446;-86
2022/02/12 04:49:46;;;;;;;27.45;25.15;;;1.60;66.70;;;;;;5112081;27;20173;-85
2022/02/12 04:52:13;;;;;;;23.95;21.90;;;1.00;68.80;;;;;;5113007;28;20176;-86
2022/02/12 04:54:39;;;;;;;26.08;23.70;;;1.10;71.60;;;;;;5112519;28;20174;-85
2022/02/12 04:57:06;;;;;;;25.67;23.40;;;1.20;71.20;;;;;;5111622;28;20201;-86
2022/02/12 04:59:32;;;;;;;25.88;23.63;;;1.20;71.50;;;;;;5111904;28;20262;-85
2022/02/12 05:01:57;;;;;;;25.10;23.00;;;1.20;71.70;;;;;;5111424;28;20217;-85
2022/02/12 05:04:23;;;;;;;26.70;24.27;;;1.20;72.20;;;;;;5111697;28;20540;-86
2022/02/12 05:06:49;;;;;;;25.27;22.83;;;1.30;72.90;;;;;;5111133;27;20178;-86
2022/02/12 05:09:15;;;;;;;23.20;21.30;;;1.30;71.60;;;;;;5112149;28;20535;-86
2022/02/12 05:11:42;;;;;;;24.80;22.67;;;1.40;71.00;;;;;;5111798;28;20232;-86
2022/02/12 05:14:08;;;;;;;25.67;23.23;;;1.50;70.20;;;;;;5109554;28;20585;-82
2022/02/12 05:16:34;;;;;;;26.15;24.05;;;1.40;70.70;;;;;;5113308;27;20212;-82
2022/02/12 05:19:01;;;;;;;25.17;22.77;;;1.50;71.80;;;;;;5113439;27;20654;-83
2022/02/12 05:21:27;;;;;;;26.60;24.38;;;1.40;69.40;;;;;;5113708;27;20172;-83
2022/02/12 05:23:52;;;;;;;25.80;23.37;;;1.10;68.70;;;;;;5114290;27;20664;-83
2022/02/12 05:26:18;;;;;;;24.77;22.50;;;1.20;70.30;;;;;;5112791;27;20625;-83
2022/02/12 05:28:44;;;;;;;26.03;23.63;;;1.20;70.90;;;;;;5110528;27;20182;-82
2022/02/12 05:31:10;;;;;;;27.38;24.83;;;1.30;72.40;;;;;;5104928;27;20179;-84
2022/02/12 05:33:37;;;;;;;26.65;24.35;;;1.30;70.70;;;;;;5113913;27;20262;-83
2022/02/12 05:36:07;;;;;;;24.88;22.77;;;1.30;70.90;;;;;;5108961;28;20225;-83
2022/02/12 05:38:33;;;;;;;25.17;23.23;;;1.40;70.00;;;;;;5108510;27;20570;-83
2022/02/12 05:40:59;;;;;;;26.63;24.23;;;1.40;71.20;;;;;;5112530;27;20172;-83
2022/02/12 05:43:25;;;;;;;27.17;24.80;;;1.50;70.00;;;;;;5113817;27;20173;-83
2022/02/12 05:45:50;;;;;;;26.57;24.20;;;1.40;69.40;;;;;;5103826;27;20265;-83
2022/02/12 05:48:19;;;;;;;27.60;25.20;;;1.40;68.30;;;;;;5130650;27;20582;-84
2022/02/12 05:50:46;;;;;;;25.80;23.38;;;1.40;68.40;;;;;;5112534;27;20889;-83
2022/02/12 05:53:11;;;;;;;22.92;21.08;;;1.40;69.40;;;;;;5113118;27;20173;-82
2022/02/12 05:55:37;;;;;;;24.23;22.13;;;1.20;69.20;;;;;;5104114;27;20179;-82
2022/02/12 05:58:03;;;;;;;26.35;24.02;;;1.10;69.60;;;;;;5093228;27;20204;-82
2022/02/12 06:00:29;;;;;;;25.83;23.30;;;1.20;71.40;;;;;;5103300;27;20179;-82
2022/02/12 06:02:55;;;;;;;25.57;23.10;;;1.30;70.70;;;;;;5107045;27;20173;-82
2022/02/12 06:05:21;;;;;;;26.30;24.20;;;1.30;68.50;;;;;;5105109;28;20233;-83
2022/02/12 06:07:46;;;;;;;25.13;22.87;;;1.20;68.90;;;;;;5103524;27;20425;-82
2022/02/12 06:10:13;;;;;;;24.40;22.40;;;1.20;70.60;;;;;;5109366;27;20222;-83
2022/02/12 06:12:39;;;;;;;26.63;24.50;;;1.30;68.00;;;;;;5082510;28;20439;-82
2022/02/12 06:15:06;;;;;;;27.70;24.80;;;1.30;69.30;;;;;;5080080;28;20189;-82
2022/02/12 06:17:32;;;;;;;24.48;22.55;;;1.30;68.60;;;;;;5091106;28;20665;-82
2022/02/12 06:19:57;;;;;;;25.70;23.60;;;1.30;68.00;;;;;;5106146;27;20181;-84
2022/02/12 06:22:27;;;;;;;28.27;25.77;;;1.30;68.00;;;;;;5110311;27;20417;-83
2022/02/12 06:24:56;;;;;;;28.45;26.08;;;1.20;67.60;;;;;;5115409;27;20225;-83
2022/02/12 06:27:30;;;;;;;25.92;23.65;;;1.00;69.70;;;;;;5116505;27;20184;-83
2022/02/12 06:29:55;;;;;;;27.67;25.00;;;0.90;71.30;;;;;;5116311;27;20225;-83
2022/02/12 06:32:22;;;;;;;25.87;23.47;;;0.90;72.70;;;;;;5116666;27;20571;-84
2022/02/12 06:34:50;;;;;;;27.17;24.63;;;1.00;73.70;;;;;;5116434;27;20692;-85
2022/02/12 06:37:19;;;;;;;27.02;24.48;;;1.10;71.60;;;;;;5116584;27;20239;-83
2022/02/12 06:39:46;;;;;;;26.60;24.13;;;1.00;69.00;;;;;;5116214;27;20169;-85
2022/02/12 06:42:12;;;;;;;27.38;24.98;;;0.80;70.70;;;;;;5116197;27;20526;-84
2022/02/12 06:44:37;;;;;;;27.90;25.30;;;0.80;73.20;;;;;;5115752;27;20179;-83
2022/02/12 06:47:04;;;;;;;28.03;25.27;;;1.00;74.00;;;;;;5116290;27;20181;-85
2022/02/12 06:49:29;;;;;;;27.10;24.38;;;1.20;73.20;;;;;;5116174;27;20180;-81
2022/02/12 06:51:55;;;;;;;25.20;23.10;;;1.30;72.00;;;;;;5116076;27;20179;-81
2022/02/12 06:54:21;;;;;;;28.63;26.03;;;1.30;71.20;;;;;;5116338;27;20181;-82
2022/02/12 06:56:46;;;;;;;26.97;24.37;;;1.30;70.40;;;;;;5116111;27;20208;-81
2022/02/12 06:59:12;;;;;;;28.87;26.27;;;1.40;70.30;;;;;;5116197;27;20625;-83
2022/02/12 07:01:37;;;;;;;28.47;26.03;;;1.40;70.00;;;;;;5115847;27;20214;-81
2022/02/12 07:04:03;;;;;;;26.23;23.37;;;1.40;70.10;;;;;;5134075;27;20170;-82
2022/02/12 07:06:29;;;;;;;26.23;23.92;;;1.50;70.20;;;;;;5117945;27;20267;-85
2022/02/12 07:08:55;;;;;;;27.13;24.63;;;1.40;70.30;;;;;;5107358;28;20459;-84
2022/02/12 07:11:29;;;;;;;32.60;27.40;;;1.50;71.30;;;;;;5096255;28;20530;-84
2022/02/12 07:13:58;;;;;;;24.92;22.67;;;1.50;69.50;;;;;;5096301;28;20664;-84
2022/02/12 07:16:30;;;;;;;28.30;25.63;;;1.40;68.10;;;;;;5096844;28;20237;-83
2022/02/12 07:18:56;;;;;;;27.40;24.80;;;1.30;67.80;;;;;;5096579;28;20171;-82
2022/02/12 07:21:31;;;;;;;27.20;24.90;;;1.20;69.40;;;;;;5096614;28;20166;-86
2022/02/12 07:23:57;;;;;;;26.83;24.55;;;1.30;71.10;;;;;;5096260;28;20169;-86
2022/02/12 07:26:22;;;;;;;26.77;24.33;;;1.40;71.20;;;;;;5096734;28;20512;-86
2022/02/12 07:28:48;;;;;;;30.03;23.87;;;1.40;69.40;;;;;;5096738;28;20174;-85
2022/02/12 07:31:16;;;;;;;26.38;24.00;;;1.30;68.20;;;;;;5095636;28;20169;-87
2022/02/12 07:33:42;;;;;;;25.02;22.63;;;1.30;68.50;;;;;;5094379;28;20172;-89
2022/02/12 07:36:08;;;;;;;27.08;24.67;;;1.30;67.90;;;;;;5092836;28;20226;-88
2022/02/12 07:38:35;;;;;;;27.15;24.80;;;1.20;69.00;;;;;;5094800;28;20225;-86
2022/02/12 07:41:01;;;;;;;26.30;24.05;;;1.20;69.00;;;;;;5095569;28;20174;-85
2022/02/12 07:43:27;;;;;;;26.27;24.27;;;1.20;69.00;;;;;;5095211;28;20205;-85
2022/02/12 07:45:54;;;;;;;27.90;25.70;;;1.30;70.50;;;;;;5094979;28;20487;-85
2022/02/12 07:48:20;;;;;;;25.50;23.15;;;1.40;70.00;;;;;;5094807;28;20412;-84
2022/02/12 07:50:46;;;;;;;25.50;23.40;;;1.40;69.70;;;;;;5094504;28;20268;-84
2022/02/12 07:53:14;;;;;;;25.67;23.67;;;1.40;69.40;;;;;;5084851;28;20265;-81
2022/02/12 07:55:40;;;;;;;25.58;23.42;;;1.40;68.30;;;;;;5077494;28;20420;-84
2022/02/12 07:58:08;;;;;;;23.15;21.23;;;1.30;68.80;;;;;;5074890;28;20256;-82
2022/02/12 08:00:35;;;;;;;22.55;20.70;;;1.40;67.50;;;;;;5074840;28;20174;-84
2022/02/12 08:03:00;;;;;;;23.73;21.73;;;1.30;67.90;;;;;;5074700;28;20646;-82
2022/02/12 08:05:26;;;;;;;23.03;20.90;;;1.20;69.00;;;;;;5091970;28;20193;-86
2022/02/12 08:07:52;;;;;;;22.67;20.67;;;1.20;69.00;;;;;;5132342;27;20260;-84
2022/02/12 08:13:02;;;;;;;26.25;23.85;;;1.40;68.20;;;;;;5133688;27;20415;-83
2022/02/12 08:15:28;;;;;;;24.30;22.20;;;1.40;68.10;;;;;;5115239;27;20188;-82
2022/02/12 08:17:55;;;;;;;23.80;21.88;;;1.30;67.70;;;;;;5095552;28;20209;-88
2022/02/12 08:20:21;;;;;;;24.70;22.60;;;1.40;68.60;;;;;;5074434;28;20174;-84
2022/02/12 08:22:47;;;;;;;23.63;21.53;;;1.40;68.50;;;;;;5074939;28;20592;-83
2022/02/12 08:25:13;;;;;;;24.50;22.10;;;1.30;67.30;;;;;;5074932;28;20175;-84
2022/02/12 08:27:38;;;;;;;25.30;23.13;;;1.40;68.70;;;;;;5074761;28;20185;-84
2022/02/12 08:30:06;;;;;;;24.77;22.30;;;1.50;68.00;;;;;;5075168;28;20419;-84
2022/02/12 08:32:32;;;;;;;25.50;23.50;;;1.50;68.20;;;;;;5074469;28;20178;-87
2022/02/12 08:34:58;;;;;;;23.77;21.67;;;1.60;67.90;;;;;;5075366;28;20175;-83
2022/02/12 08:37:24;;;;;;;23.50;21.40;;;1.60;68.30;;;;;;5075362;28;20570;-84
2022/02/12 08:39:51;;;;;;;24.75;22.85;;;1.60;66.10;;;;;;5075229;28;20272;-84
2022/02/12 08:42:20;;;;;;;26.70;24.50;;;1.70;67.40;;;;;;5075279;28;20183;-84
2022/02/12 08:44:46;;;;;;;24.67;22.67;;;1.70;67.50;;;;;;5076433;28;20412;-83
2022/02/12 08:47:12;;;;;;;24.13;22.17;;;1.80;66.70;;;;;;5077724;28;20182;-84
2022/02/12 08:49:38;;;;;;;22.80;20.80;;;1.80;67.40;;;;;;5077899;28;20174;-84
2022/02/12 08:52:05;;;;;;;23.33;21.23;;;1.80;66.70;;;;;;5079165;28;20175;-84
2022/02/12 08:54:31;;;;;;;24.65;22.20;;;1.90;66.90;;;;;;5078583;28;20188;-85
2022/02/12 08:56:57;;;;;;;21.93;20.30;;;1.90;66.40;;;;;;5078604;28;20267;-84
2022/02/12 08:59:45;;;;;;;22.37;20.47;;;1.90;66.40;;;;;;5079051;28;20202;-84
2022/02/12 09:02:12;;;;;;;23.90;21.33;;;1.90;67.20;;;;;;5079011;28;20159;-84
2022/02/12 09:04:39;;;;;;;22.73;20.83;;;1.90;66.00;;;;;;5079006;28;20174;-84
2022/02/12 09:07:04;;;;;;;21.80;20.10;;;2.00;67.00;;;;;;5078936;28;20473;-84
2022/02/12 09:09:30;;;;;;;22.13;20.13;;;2.00;66.10;;;;;;5078764;28;20603;-85
2022/02/12 09:11:57;;;;;;;22.03;19.80;;;2.10;65.30;;;;;;5078927;28;20511;-85
2022/02/12 09:14:47;;;;;;;21.37;19.53;;;2.10;64.40;;;;;;5078754;28;20273;-85
2022/02/12 09:17:13;;;;;;;21.90;20.20;;;2.10;63.90;;;;;;5078779;28;20480;-85
2022/02/12 09:19:38;;;;;;;22.23;20.10;;;2.20;63.00;;;;;;5078666;28;20443;-85
2022/02/12 09:22:04;;;;;;;21.50;19.80;;;2.20;64.60;;;;;;5078024;28;20207;-87
2022/02/12 09:24:30;;;;;;;21.57;19.77;;;2.40;64.80;;;;;;5077595;28;20262;-82
2022/02/12 09:26:55;;;;;;;21.77;19.37;;;2.30;62.40;;;;;;5076895;28;20734;-84
2022/02/12 09:29:21;;;;;;;22.83;20.70;;;2.40;64.40;;;;;;5077553;28;20174;-86
2022/02/12 09:31:47;;;;;;;22.53;20.67;;;2.50;63.80;;;;;;5077653;28;20186;-85
2022/02/12 09:34:13;;;;;;;20.83;18.90;;;2.50;62.10;;;;;;5077420;28;20265;-83
2022/02/12 09:36:39;;;;;;;22.00;19.90;;;2.60;62.00;;;;;;5076823;28;20425;-82
2022/02/12 09:39:05;;;;;;;21.00;19.37;;;2.60;61.80;;;;;;5078214;28;20479;-85
2022/02/12 09:41:32;;;;;;;25.07;21.10;;;2.60;60.30;;;;;;5077623;28;20416;-83
2022/02/12 09:43:58;;;;;;;20.87;19.03;;;2.60;61.80;;;;;;5077860;28;20404;-84
2022/02/12 09:46:32;;;;;;;21.00;19.13;;;2.70;62.00;;;;;;5078122;28;20427;-83
2022/02/12 09:48:59;;;;;;;20.77;19.17;;;2.60;60.40;;;;;;5077294;28;20629;-84
2022/02/12 09:51:27;;;;;;;21.43;19.60;;;2.70;61.40;;;;;;5089285;28;20495;-88
2022/02/12 09:53:53;;;;;;;21.70;20.10;;;2.50;59.70;;;;;;5097888;28;20416;-85
2022/02/12 09:56:19;;;;;;;19.50;18.00;;;2.50;59.60;;;;;;5097848;28;20463;-89
2022/02/12 09:58:45;;;;;;;22.47;20.53;;;2.60;61.70;;;;;;5097498;28;20412;-89
2022/02/12 10:01:11;;;;;;;22.03;20.00;;;2.70;60.80;;;;;;5093091;28;20419;-85
2022/02/12 10:03:41;;;;;;;21.00;19.20;;;2.80;61.60;;;;;;5097082;28;20506;-81
2022/02/12 10:06:07;;;;;;;20.67;18.87;;;2.90;60.70;;;;;;5096659;28;20468;-81
2022/02/12 10:08:36;;;;;;;18.80;17.20;;;3.00;58.80;;;;;;5096656;28;20407;-83
2022/02/12 10:11:12;;;;;;;18.20;16.70;;;3.20;58.60;;;;;;5096364;28;20503;-82
2022/02/12 10:13:38;;;;;;;18.57;16.70;;;3.30;59.30;;;;;;5096290;28;20952;-82
2022/02/12 10:16:04;;;;;;;18.20;16.80;;;3.40;59.40;;;;;;5096411;28;20431;-82
2022/02/12 10:18:35;;;;;;;17.60;16.30;;;3.50;58.20;;;;;;5096582;28;20443;-82
2022/02/12 10:21:02;;;;;;;16.27;15.03;;;3.60;56.60;;;;;;5096667;28;20419;-81
2022/02/12 10:23:30;;;;;;;19.43;16.93;;;3.70;54.90;;;;;;5116655;28;20736;-84
2022/02/12 10:26:09;;;;;;;17.63;15.20;;;3.90;57.30;;;;;;5097431;28;20672;-84
2022/02/12 10:28:40;;;;;;;16.23;14.70;;;4.00;55.90;;;;;;5097678;28;20418;-84
2022/02/12 10:31:06;;;;;;;16.70;14.90;;;4.10;54.70;;;;;;5096184;28;20816;-85
2022/02/12 10:33:41;;;;;;;17.17;15.43;;;4.20;53.00;;;;;;5096611;28;20454;-84
2022/02/12 10:36:11;;;;;;;15.47;14.23;;;4.40;51.40;;;;;;5096916;28;20399;-84
2022/02/12 10:38:36;;;;;;;14.65;13.55;;;4.60;51.70;;;;;;5114340;28;20460;-84
2022/02/12 10:41:15;;;;;;;14.00;12.93;;;4.80;49.40;;;;;;5096618;28;20572;-85
2022/02/12 10:43:45;;;;;;;13.90;12.70;;;4.80;50.00;;;;;;5096362;28;20205;-84
2022/02/12 10:46:11;;;;;;;15.90;13.57;;;4.80;49.40;;;;;;5096292;28;20408;-85
2022/02/12 10:48:40;;;;;;;12.93;11.70;;;4.80;48.50;;;;;;5096149;28;20423;-85
2022/02/12 10:51:14;;;;;;;13.33;12.07;;;4.90;48.20;;;;;;5096328;28;20487;-84
2022/02/12 10:54:06;;;;;;;14.07;12.07;;;4.90;47.00;;;;;;5096187;28;20408;-85
2022/02/12 10:56:57;;;;;;;11.30;10.20;;;4.90;49.20;;;;;;5095142;28;20447;-86
2022/02/12 10:59:24;;;;;;;12.50;11.03;;;5.60;45.80;;;;;;5095660;28;20411;-81
2022/02/12 11:01:51;;;;;;;10.97;9.70;;;5.60;44.30;;;;;;5095674;28;20419;-81
2022/02/12 11:04:18;;;;;;;9.07;7.67;;;5.60;45.00;;;;;;5095473;28;20441;-81
2022/02/12 11:06:46;;;;;;;9.93;7.80;;;5.40;44.50;;;;;;5095627;28;20453;-79
2022/02/12 11:09:14;;;;;;;11.33;9.07;;;5.40;45.70;;;;;;5095368;28;20408;-79
2022/02/12 11:11:40;;;;;;;13.40;8.50;;;5.40;46.80;;;;;;5094946;28;20481;-80
2022/02/12 11:14:06;;;;;;;9.37;7.90;;;5.40;47.00;;;;;;5094412;28;20408;-81
2022/02/12 11:16:34;;;;;;;15.73;9.10;;;5.40;45.70;;;;;;5094379;28;20459;-80
2022/02/12 11:19:01;;;;;;;18.77;14.53;;;5.40;46.40;;;;;;5094568;28;20404;-80
2022/02/12 11:21:27;;;;;;;8.70;7.90;;;5.40;45.80;;;;;;5094615;28;20434;-80
2022/02/12 11:24:08;;;;;;;8.73;7.83;;;5.40;44.10;;;;;;5095057;28;20781;-80
2022/02/12 11:26:46;;;;;;;14.20;6.97;;;5.50;43.70;;;;;;5095380;28;20416;-80
2022/02/12 11:29:37;;;;;;;12.00;8.40;;;5.60;39.60;;;;;;5095074;28;20412;-79
2022/02/12 11:32:10;;;;;;;8.10;6.60;;;5.70;41.30;;;;;;5095144;28;20400;-79
2022/02/12 11:34:39;;;;;;;7.50;6.87;;;5.80;40.70;;;;;;5095211;28;20587;-79
2022/02/12 11:37:18;;;;;;;9.87;6.93;;;5.90;41.40;;;;;;5095189;28;20575;-80
2022/02/12 11:40:10;;;;;;;12.27;11.23;;;5.90;41.60;;;;;;5095074;28;20408;-79
2022/02/12 11:43:09;;;;;;;12.10;7.30;;;6.00;41.70;;;;;;5094975;28;20388;-79
2022/02/12 11:45:42;;;;;;;9.17;8.27;;;6.10;39.00;;;;;;5089044;28;20941;-80
2022/02/12 11:48:26;;;;;;;6.20;5.70;;;6.00;37.00;;;;;;5095228;28;20404;-80
2022/02/12 11:51:02;;;;;;;7.33;6.67;;;6.10;36.20;;;;;;5094917;28;20407;-80
2022/02/12 11:53:43;;;;;;;7.33;6.63;;;6.20;35.60;;;;;;5094925;28;20455;-79
2022/02/12 11:56:09;;;;;;;6.30;5.27;;;6.10;36.60;;;;;;5094757;28;20416;-79
2022/02/12 11:58:55;;;;;;;12.33;6.70;;;6.10;35.10;;;;;;5094653;28;20873;-80
2022/02/12 12:01:35;;;;;;;7.80;7.10;;;6.20;35.60;;;;;;5075966;28;20494;-80
2022/02/12 12:04:16;;;;;;;8.10;7.30;;;6.20;37.10;;;;;;5078877;28;20923;-79
2022/02/12 12:07:01;;;;;;;7.67;6.13;;;6.20;36.20;;;;;;5094470;28;20403;-79
2022/02/12 12:09:31;;;;;;;7.13;6.50;;;6.20;37.00;;;;;;5110045;27;20818;-80
2022/02/12 12:12:19;;;;;;;8.47;7.67;;;6.30;37.30;;;;;;5114688;27;20418;-80
2022/02/12 12:14:46;;;;;;;9.17;8.27;;;6.30;38.10;;;;;;5114964;28;20415;-80
2022/02/12 12:17:13;;;;;;;5.90;5.40;;;6.40;36.90;;;;;;5114792;27;20451;-79
2022/02/12 12:19:59;;;;;;;6.57;5.87;;;6.40;35.70;;;;;;5114553;27;20434;-79
2022/02/12 12:22:28;;;;;;;7.60;6.90;;;6.40;35.30;;;;;;5114682;27;20399;-80
2022/02/12 12:24:58;;;;;;;6.00;5.43;;;6.50;35.60;;;;;;5114317;28;20391;-80
2022/02/12 12:27:24;;;;;;;8.10;7.30;;;6.50;35.00;;;;;;5114660;27;20453;-80
2022/02/12 12:32:39;;;;;;;6.30;5.70;;;6.60;34.20;;;;;;5133321;28;20165;-79
2022/02/12 12:35:09;;;;;;;4.93;4.53;;;6.60;35.80;;;;;;5133191;28;20392;-79
2022/02/12 12:37:49;;;;;;;6.43;5.83;;;6.60;33.70;;;;;;5114123;28;20465;-78
2022/02/12 12:40:15;;;;;;;5.00;4.60;;;6.70;34.20;;;;;;5114176;28;20399;-79
2022/02/12 12:42:40;;;;;;;4.77;4.37;;;6.70;36.00;;;;;;5112583;28;20411;-79
2022/02/12 12:45:11;;;;;;;5.90;4.40;;;6.80;33.30;;;;;;5113670;27;20776;-79
2022/02/12 12:47:58;;;;;;;6.10;4.87;;;6.80;33.70;;;;;;5114453;28;20181;-79
2022/02/12 12:50:24;;;;;;;3.53;3.33;;;6.80;33.90;;;;;;5114211;28;20419;-79
2022/02/12 12:53:10;;;;;;;4.27;4.07;;;6.80;30.30;;;;;;5114057;28;20503;-80